createdAt,value
2018-11-11T00:01:04.751Z,77.57
2018-11-11T00:03:32.182Z,77.27
2018-11-11T00:05:59.990Z,77.25
2018-11-11T00:08:27.671Z,77.72
2018-11-11T00:10:55.088Z,77.70
2018-11-11T00:13:22.996Z,77.35
2018-11-11T00:15:56.337Z,77.56
2018-11-11T00:18:23.765Z,77.04
2018-11-11T00:20:51.497Z,77.60
2018-11-11T00:23:18.904Z,77.32
2018-11-11T00:25:46.347Z,77.26
2018-11-11T00:28:14.103Z,77.12
2018-11-11T00:30:41.565Z,77.15
2018-11-11T00:33:08.986Z,76.83
2018-11-11T00:35:36.854Z,76.76
2018-11-11T00:38:04.252Z,77.39
2018-11-11T00:40:31.667Z,76.99
2018-11-11T00:42:59.536Z,77.28
2018-11-11T00:45:27.011Z,76.55
2018-11-11T00:47:54.454Z,77.37
2018-11-11T00:50:22.272Z,76.89
2018-11-11T00:52:49.674Z,76.63
2018-11-11T00:55:17.807Z,76.84
2018-11-11T00:57:45.932Z,76.83
2018-11-11T01:00:14.256Z,76.95
2018-11-11T01:02:42.308Z,76.62
2018-11-11T01:05:10.906Z,77.40
2018-11-11T01:07:39.029Z,77.08
2018-11-11T01:10:06.434Z,76.68
2018-11-11T01:12:33.859Z,77.08
2018-11-11T01:15:02.728Z,76.66
2018-11-11T01:17:30.152Z,76.76
2018-11-11T01:19:57.547Z,76.44
2018-11-11T01:22:25.289Z,76.25
2018-11-11T01:24:52.703Z,76.54
2018-11-11T01:27:20.177Z,76.70
2018-11-11T01:29:47.684Z,76.41
2018-11-11T01:32:15.180Z,76.36
2018-11-11T01:34:42.656Z,76.56
2018-11-11T01:37:10.074Z,76.66
2018-11-11T01:39:37.911Z,76.41
2018-11-11T01:42:05.443Z,76.50
2018-11-11T01:44:32.893Z,76.15
2018-11-11T01:47:00.677Z,76.47
2018-11-11T01:49:28.140Z,75.82
2018-11-11T01:51:55.560Z,75.94
2018-11-11T01:54:23.495Z,75.94
2018-11-11T01:56:51.351Z,75.97
2018-11-11T01:59:18.804Z,75.29
2018-11-11T02:01:46.267Z,75.13
2018-11-11T02:04:14.280Z,75.24
2018-11-11T02:06:41.740Z,75.00
2018-11-11T02:09:10.271Z,74.85
2018-11-11T02:11:38.715Z,75.00
2018-11-11T02:14:06.748Z,74.80
2018-11-11T02:16:34.164Z,74.81
2018-11-11T02:19:01.604Z,74.78
2018-11-11T02:21:29.381Z,74.56
2018-11-11T02:23:57.848Z,75.13
2018-11-11T02:26:25.271Z,75.15
2018-11-11T02:28:52.663Z,74.62
2018-11-11T02:31:20.448Z,74.37
2018-11-11T02:33:47.899Z,74.42
2018-11-11T02:36:15.308Z,74.59
2018-11-11T02:38:46.697Z,74.88
2018-11-11T02:41:17.541Z,74.36
2018-11-11T02:43:45.260Z,74.42
2018-11-11T02:46:12.792Z,74.35
2018-11-11T02:48:40.226Z,74.59
2018-11-11T02:51:08.101Z,74.29
2018-11-11T02:53:35.529Z,74.04
2018-11-11T02:56:02.988Z,74.57
2018-11-11T02:58:30.412Z,74.63
2018-11-11T03:00:58.323Z,74.34
2018-11-11T03:03:25.886Z,74.35
2018-11-11T03:05:53.433Z,74.38
2018-11-11T03:08:20.907Z,73.99
2018-11-11T03:10:48.747Z,74.01
2018-11-11T03:13:16.176Z,73.45
2018-11-11T03:15:43.596Z,73.31
2018-11-11T03:18:11.024Z,73.58
2018-11-11T03:20:38.811Z,72.93
2018-11-11T03:23:06.272Z,73.09
2018-11-11T03:25:33.691Z,72.98
2018-11-11T03:28:01.129Z,72.71
2018-11-11T03:30:29.180Z,73.06
2018-11-11T03:32:56.576Z,72.58
2018-11-11T03:35:24.023Z,73.13
2018-11-11T03:37:51.495Z,73.33
2018-11-11T03:40:20.589Z,72.56
2018-11-11T03:42:48.389Z,73.36
2018-11-11T03:45:17.120Z,72.74
2018-11-11T03:47:45.892Z,73.44
2018-11-11T03:50:13.421Z,73.54
2018-11-11T03:52:41.078Z,73.69
2018-11-11T03:55:08.576Z,73.61
2018-11-11T03:57:36.729Z,73.63
2018-11-11T04:00:04.535Z,73.87
2018-11-11T04:02:31.982Z,73.57
2018-11-11T04:04:59.795Z,73.20
2018-11-11T04:07:27.261Z,73.35
2018-11-11T04:09:54.684Z,73.74
2018-11-11T04:12:22.144Z,73.50
2018-11-11T04:14:50.054Z,73.32
2018-11-11T04:17:17.545Z,72.70
2018-11-11T04:19:45.020Z,73.19
2018-11-11T04:22:16.797Z,73.04
2018-11-11T04:24:45.305Z,73.56
2018-11-11T04:27:14.090Z,73.07
2018-11-11T04:29:41.676Z,73.26
2018-11-11T04:32:09.484Z,73.23
2018-11-11T04:34:36.943Z,73.12
2018-11-11T04:37:04.348Z,73.15
2018-11-11T04:39:32.193Z,73.29
2018-11-11T04:41:59.637Z,73.12
2018-11-11T04:44:27.140Z,72.74
2018-11-11T04:46:54.579Z,73.07
2018-11-11T04:49:22.455Z,73.23
2018-11-11T04:51:49.876Z,72.79
2018-11-11T04:54:17.300Z,73.27
2018-11-11T04:56:44.715Z,72.97
2018-11-11T04:59:12.456Z,73.37
2018-11-11T05:01:39.988Z,72.85
2018-11-11T05:04:08.384Z,72.94
2018-11-11T05:06:35.861Z,73.20
2018-11-11T05:09:03.809Z,73.31
2018-11-11T05:11:31.268Z,73.20
2018-11-11T05:13:58.717Z,73.64
2018-11-11T05:16:26.183Z,73.56
2018-11-11T05:18:53.936Z,73.54
2018-11-11T05:21:21.357Z,73.23
2018-11-11T05:23:49.425Z,73.26
2018-11-11T05:26:16.865Z,73.59
2018-11-11T05:28:44.697Z,72.91
2018-11-11T05:31:14.193Z,72.98
2018-11-11T05:33:42.240Z,73.42
2018-11-11T05:36:09.700Z,72.84
2018-11-11T05:38:37.654Z,72.85
2018-11-11T05:41:05.929Z,73.10
2018-11-11T05:43:33.385Z,73.07
2018-11-11T05:46:00.829Z,73.08
2018-11-11T05:48:28.572Z,73.08
2018-11-11T05:50:56.080Z,73.29
2018-11-11T05:53:23.541Z,73.28
2018-11-11T05:55:50.994Z,73.22
2018-11-11T05:58:18.852Z,72.48
2018-11-11T06:00:46.532Z,73.05
2018-11-11T06:03:14.044Z,73.09
2018-11-11T06:05:41.521Z,73.05
2018-11-11T06:08:09.508Z,72.34
2018-11-11T06:10:38.584Z,72.25
2018-11-11T06:13:06.032Z,72.59
2018-11-11T06:15:33.529Z,72.66
2018-11-11T06:18:00.979Z,72.67
2018-11-11T06:20:28.396Z,72.10
2018-11-11T06:22:55.832Z,72.85
2018-11-11T06:25:23.293Z,72.96
2018-11-11T06:27:50.744Z,72.08
2018-11-11T06:30:19.493Z,72.07
2018-11-11T06:32:46.937Z,72.38
2018-11-11T06:35:14.397Z,72.68
2018-11-11T06:37:42.228Z,72.50
2018-11-11T06:40:09.793Z,72.97
2018-11-11T06:42:38.347Z,73.27
2018-11-11T06:45:06.294Z,73.03
2018-11-11T06:47:33.746Z,73.47
2018-11-11T06:50:01.210Z,72.95
2018-11-11T06:52:28.659Z,73.58
2018-11-11T06:54:56.099Z,72.95
2018-11-11T06:57:23.557Z,73.34
2018-11-11T06:59:50.990Z,73.26
2018-11-11T07:02:18.427Z,74.04
2018-11-11T07:04:45.906Z,74.10
2018-11-11T07:07:13.424Z,73.52
2018-11-11T07:09:41.628Z,73.41
2018-11-11T07:12:09.048Z,73.29
2018-11-11T07:14:38.573Z,73.71
2018-11-11T07:17:06.763Z,73.12
2018-11-11T07:19:37.359Z,72.96
2018-11-11T07:22:04.785Z,72.68
2018-11-11T07:24:32.196Z,73.12
2018-11-11T07:26:59.637Z,73.47
2018-11-11T07:29:27.168Z,73.05
2018-11-11T07:31:54.612Z,72.83
2018-11-11T07:34:24.232Z,73.62
2018-11-11T07:36:51.676Z,73.06
2018-11-11T07:39:19.562Z,73.48
2018-11-11T07:41:47.008Z,73.30
2018-11-11T07:44:14.871Z,72.99
2018-11-11T07:46:42.355Z,72.79
2018-11-11T07:49:09.760Z,72.83
2018-11-11T07:51:37.435Z,71.84
2018-11-11T07:54:04.905Z,72.07
2018-11-11T07:56:33.115Z,71.74
2018-11-11T07:59:01.255Z,71.57
2018-11-11T08:01:29.373Z,72.58
2018-11-11T08:03:57.112Z,72.29
2018-11-11T08:06:25.038Z,72.05
2018-11-11T08:08:52.469Z,72.42
2018-11-11T08:11:20.352Z,71.99
2018-11-11T08:13:48.209Z,72.30
2018-11-11T08:16:16.322Z,71.94
2018-11-11T08:18:43.744Z,72.52
2018-11-11T08:21:11.645Z,72.22
2018-11-11T08:23:40.530Z,72.29
2018-11-11T08:26:07.984Z,72.20
2018-11-11T08:28:35.781Z,71.53
2018-11-11T08:31:03.226Z,72.20
2018-11-11T08:33:30.691Z,71.73
2018-11-11T08:35:58.579Z,71.59
2018-11-11T08:38:26.024Z,71.84
2018-11-11T08:40:53.473Z,71.16
2018-11-11T08:43:21.364Z,71.19
2018-11-11T08:45:50.057Z,70.13
2018-11-11T08:48:17.582Z,70.60
2018-11-11T08:50:45.398Z,70.05
2018-11-11T08:53:12.833Z,69.72
2018-11-11T08:55:40.281Z,69.96
2018-11-11T08:58:08.492Z,69.18
2018-11-11T09:00:35.866Z,69.78
2018-11-11T09:03:03.332Z,69.90
2018-11-11T09:05:31.148Z,69.35
2018-11-11T09:07:59.262Z,69.33
2018-11-11T09:10:27.469Z,69.74
2018-11-11T09:12:55.347Z,70.08
2018-11-11T09:15:22.786Z,70.09
2018-11-11T09:17:50.245Z,70.13
2018-11-11T09:20:18.285Z,70.20
2018-11-11T09:22:46.439Z,69.60
2018-11-11T09:25:13.927Z,69.45
2018-11-11T09:27:42.625Z,69.11
2018-11-11T09:30:10.574Z,68.36
2018-11-11T09:32:39.200Z,68.49
2018-11-11T09:35:06.964Z,67.76
2018-11-11T09:37:35.448Z,67.56
2018-11-11T09:40:03.619Z,67.72
2018-11-11T09:42:31.405Z,66.61
2018-11-11T09:44:59.971Z,66.91
2018-11-11T09:47:27.412Z,65.99
2018-11-11T09:49:55.209Z,65.05
2018-11-11T09:52:23.413Z,64.59
2018-11-11T09:54:50.853Z,63.09
2018-11-11T09:57:18.645Z,60.41
2018-11-11T09:59:46.167Z,58.86
2018-11-11T10:02:14.594Z,58.60
2018-11-11T10:05:48.256Z,56.99
2018-11-11T10:10:22.327Z,56.14
2018-11-11T10:12:54.964Z,57.95
2018-11-11T10:15:27.373Z,57.03
2018-11-11T10:18:03.421Z,57.42
2018-11-11T10:20:41.393Z,57.19
2018-11-11T10:23:15.948Z,57.01
2018-11-11T10:26:19.760Z,58.39
2018-11-11T10:29:24.851Z,57.38
2018-11-11T10:32:04.212Z,55.03
2018-11-11T10:34:42.492Z,53.83
2018-11-11T10:37:15.862Z,53.39
2018-11-11T10:40:53.551Z,53.03
2018-11-11T10:43:26.753Z,52.30
2018-11-11T10:46:04.542Z,52.97
2018-11-11T10:48:35.755Z,52.89
2018-11-11T10:51:06.597Z,53.17
2018-11-11T10:53:34.981Z,51.91
2018-11-11T10:56:02.414Z,51.91
2018-11-11T10:58:30.213Z,52.31
2018-11-11T11:01:02.780Z,52.91
2018-11-11T11:03:33.318Z,54.04
2018-11-11T11:06:02.833Z,55.71
2018-11-11T11:08:30.975Z,56.42
2018-11-11T11:10:58.387Z,56.33
2018-11-11T11:15:49.408Z,56.54
2018-11-11T11:18:18.559Z,56.80
2018-11-11T11:20:46.510Z,56.73
2018-11-11T11:23:13.957Z,57.03
2018-11-11T11:25:41.444Z,57.20
2018-11-11T11:28:11.261Z,57.03
2018-11-11T11:30:38.671Z,56.33
2018-11-11T11:33:06.085Z,57.69
2018-11-11T11:35:33.984Z,57.11
2018-11-11T11:38:01.457Z,57.38
2018-11-11T11:40:30.324Z,57.66
2018-11-11T11:42:58.100Z,57.14
2018-11-11T11:45:26.236Z,58.34
2018-11-11T11:47:53.666Z,58.52
2018-11-11T11:50:28.039Z,58.00
2018-11-11T11:52:56.443Z,58.07
2018-11-11T11:55:23.821Z,57.23
2018-11-11T11:57:51.732Z,56.96
2018-11-11T12:00:20.165Z,57.41
2018-11-11T12:02:47.579Z,57.06
2018-11-11T12:05:15.457Z,57.41
2018-11-11T12:07:46.458Z,57.00
2018-11-11T12:10:17.483Z,56.13
2018-11-11T12:12:45.197Z,57.09
2018-11-11T12:15:12.720Z,57.10
2018-11-11T12:17:41.828Z,57.72
2018-11-11T12:20:10.710Z,58.59
2018-11-11T12:22:38.324Z,58.45
2018-11-11T12:25:07.090Z,58.68
2018-11-11T12:27:36.121Z,59.66
2018-11-11T12:30:03.540Z,60.19
2018-11-11T12:32:32.556Z,59.87
2018-11-11T12:35:02.661Z,59.83
2018-11-11T12:37:30.088Z,60.27
2018-11-11T12:39:57.696Z,60.06
2018-11-11T12:42:25.358Z,60.44
2018-11-11T12:44:52.850Z,60.55
2018-11-11T12:47:20.373Z,60.03
2018-11-11T12:49:50.602Z,60.05
2018-11-11T12:52:21.625Z,59.90
2018-11-11T12:54:50.592Z,60.55
2018-11-11T12:57:20.877Z,60.93
2018-11-11T12:59:51.637Z,60.43
2018-11-11T13:02:19.336Z,60.97
2018-11-11T13:04:47.473Z,60.79
2018-11-11T13:07:15.320Z,60.89
2018-11-11T13:09:42.735Z,60.40
2018-11-11T13:12:12.553Z,61.36
2018-11-11T13:14:40.328Z,60.76
2018-11-11T13:17:08.510Z,60.82
2018-11-11T13:19:36.332Z,61.51
2018-11-11T13:22:03.767Z,61.67
2018-11-11T13:24:32.207Z,61.81
2018-11-11T13:27:01.501Z,62.00
2018-11-11T13:29:29.757Z,61.96
2018-11-11T13:31:57.523Z,62.73
2018-11-11T13:34:25.303Z,62.51
2018-11-11T13:36:52.762Z,62.80
2018-11-11T13:39:20.461Z,63.12
2018-11-11T13:41:52.156Z,64.64
2018-11-11T13:44:19.562Z,64.89
2018-11-11T13:46:47.252Z,65.94
2018-11-11T13:49:16.937Z,66.20
2018-11-11T13:51:44.386Z,65.81
2018-11-11T13:54:11.827Z,66.66
2018-11-11T13:56:39.635Z,66.70
2018-11-11T13:59:08.132Z,67.68
2018-11-11T14:01:35.609Z,67.66
2018-11-11T14:04:03.391Z,68.30
2018-11-11T14:06:31.442Z,68.15
2018-11-11T14:09:00.374Z,68.46
2018-11-11T14:11:31.731Z,69.25
2018-11-11T14:13:59.404Z,69.32
2018-11-11T14:16:27.794Z,70.53
2018-11-11T14:18:55.983Z,71.11
2018-11-11T14:21:23.183Z,71.30
2018-11-11T14:23:50.712Z,71.28
2018-11-11T14:26:18.828Z,72.29
2018-11-11T14:28:46.532Z,72.57
2018-11-11T14:31:14.722Z,73.17
2018-11-11T14:33:42.475Z,72.93
2018-11-11T14:36:09.915Z,72.85
2018-11-11T14:38:37.400Z,73.35
2018-11-11T14:41:05.405Z,73.30
2018-11-11T14:43:32.869Z,73.66
2018-11-11T14:46:03.408Z,73.93
2018-11-11T14:48:31.341Z,74.66
2018-11-11T14:50:58.831Z,73.88
2018-11-11T14:53:26.281Z,74.65
2018-11-11T14:55:54.122Z,74.21
2018-11-11T14:58:22.905Z,74.07
2018-11-11T15:00:50.852Z,75.08
2018-11-11T15:03:24.462Z,74.61
2018-11-11T15:05:52.690Z,74.70
2018-11-11T15:08:20.114Z,74.94
2018-11-11T15:10:47.864Z,75.52
2018-11-11T15:13:18.071Z,75.70
2018-11-11T15:15:45.549Z,75.33
2018-11-11T15:18:13.342Z,74.95
2018-11-11T15:20:41.198Z,75.11
2018-11-11T15:23:10.336Z,75.58
2018-11-11T15:25:38.148Z,75.47
2018-11-11T15:28:05.816Z,74.90
2018-11-11T15:30:34.639Z,75.40
2018-11-11T15:33:02.841Z,74.93
2018-11-11T15:35:40.251Z,75.50
2018-11-11T15:38:08.393Z,75.25
2018-11-11T15:40:38.872Z,75.43
2018-11-11T15:43:06.660Z,75.50
2018-11-11T15:45:34.932Z,75.16
2018-11-11T15:48:04.118Z,74.93
2018-11-11T15:50:36.224Z,74.88
2018-11-11T15:53:04.964Z,75.66
2018-11-11T15:55:34.503Z,75.44
2018-11-11T15:58:02.352Z,75.66
2018-11-11T16:00:34.758Z,75.54
2018-11-11T16:03:05.236Z,75.96
2018-11-11T16:05:33.105Z,75.76
2018-11-11T16:08:01.332Z,76.34
2018-11-11T16:10:32.275Z,76.23
2018-11-11T16:13:01.115Z,76.36
2018-11-11T16:15:30.001Z,76.42
2018-11-11T16:17:59.056Z,76.03
2018-11-11T16:20:29.425Z,76.22
2018-11-11T16:23:00.361Z,76.63
2018-11-11T16:25:29.359Z,76.73
2018-11-11T16:27:58.307Z,76.64
2018-11-11T16:30:27.820Z,76.35
2018-11-11T16:32:56.853Z,76.42
2018-11-11T16:35:26.293Z,77.29
2018-11-11T16:37:53.725Z,77.07
2018-11-11T16:40:23.558Z,76.82
2018-11-11T16:42:54.461Z,77.02
2018-11-11T16:45:23.191Z,76.94
2018-11-11T16:47:51.681Z,76.55
2018-11-11T16:50:20.469Z,77.13
2018-11-11T16:52:49.749Z,76.47
2018-11-11T16:55:18.448Z,76.75
2018-11-11T17:00:39.201Z,75.88
2018-11-11T17:03:07.512Z,75.75
2018-11-11T17:05:36.720Z,76.29
2018-11-11T17:08:04.192Z,75.57
2018-11-11T17:10:34.185Z,75.72
2018-11-11T17:13:04.818Z,75.91
2018-11-11T17:18:14.761Z,75.89
2018-11-11T17:20:44.430Z,75.48
2018-11-11T17:23:12.204Z,74.82
2018-11-11T17:25:39.684Z,75.54
2018-11-11T17:28:08.921Z,75.45
2018-11-11T17:30:43.549Z,74.98
2018-11-11T17:33:13.358Z,74.78
2018-11-11T17:35:41.307Z,74.54
2018-11-11T17:38:12.384Z,74.45
2018-11-11T17:40:40.688Z,75.26
2018-11-11T17:43:10.283Z,74.45
2018-11-11T17:45:39.741Z,74.94
2018-11-11T17:48:08.505Z,74.61
2018-11-11T17:50:36.356Z,74.66
2018-11-11T17:53:09.740Z,74.56
2018-11-11T17:55:37.301Z,74.65
2018-11-11T17:58:06.091Z,75.04
2018-11-11T18:00:38.303Z,74.60
2018-11-11T18:03:05.831Z,74.32
2018-11-11T18:05:35.230Z,75.17
2018-11-11T18:08:04.391Z,74.44
2018-11-11T18:10:33.624Z,75.23
2018-11-11T18:13:01.528Z,74.43
2018-11-11T18:15:31.428Z,74.67
2018-11-11T18:17:59.641Z,74.51
2018-11-11T18:20:30.172Z,74.59
2018-11-11T18:22:59.181Z,74.86
2018-11-11T18:25:26.675Z,75.36
2018-11-11T18:27:54.554Z,75.44
2018-11-11T18:30:23.432Z,75.69
2018-11-11T18:32:52.180Z,76.18
2018-11-11T18:35:21.316Z,75.42
2018-11-11T18:37:49.393Z,75.59
2018-11-11T18:40:19.685Z,75.89
2018-11-11T18:42:47.602Z,76.31
2018-11-11T18:45:19.267Z,75.81
2018-11-11T18:47:47.380Z,75.88
2018-11-11T18:50:18.467Z,76.71
2018-11-11T18:52:46.425Z,76.19
2018-11-11T18:55:13.983Z,76.71
2018-11-11T18:57:42.241Z,76.28
2018-11-11T19:00:11.239Z,76.85
2018-11-11T19:02:39.304Z,76.43
2018-11-11T19:05:09.410Z,77.00
2018-11-11T19:07:37.759Z,76.96
2018-11-11T19:10:07.651Z,77.24
2018-11-11T19:12:35.874Z,77.41
2018-11-11T19:17:38.371Z,77.61
2018-11-11T19:20:08.584Z,77.60
2018-11-11T19:22:36.033Z,77.15
2018-11-11T19:25:03.514Z,77.35
2018-11-11T19:27:31.328Z,77.39
2018-11-11T19:29:59.436Z,77.55
2018-11-11T19:32:26.925Z,77.53
2018-11-11T19:34:55.702Z,77.54
2018-11-11T19:37:23.315Z,77.87
2018-11-11T19:39:50.748Z,77.80
2018-11-11T19:42:19.133Z,78.14
2018-11-11T19:44:46.564Z,78.39
2018-11-11T19:47:17.330Z,78.23
2018-11-11T19:49:46.381Z,78.43
2018-11-11T19:52:13.817Z,78.97
2018-11-11T19:54:41.308Z,79.12
2018-11-11T19:57:16.469Z,79.04
2018-11-11T19:59:43.988Z,78.83
2018-11-11T20:02:11.441Z,79.31
2018-11-11T20:04:39.285Z,79.07
2018-11-11T20:07:13.108Z,79.42
2018-11-11T20:09:41.329Z,79.60
2018-11-11T20:12:10.491Z,78.79
2018-11-11T20:14:38.642Z,79.07
2018-11-11T20:17:07.489Z,79.49
2018-11-11T20:19:38.647Z,79.08
2018-11-11T20:22:07.998Z,79.53
2018-11-11T20:24:35.703Z,79.59
2018-11-11T20:27:03.658Z,79.20
2018-11-11T20:29:32.412Z,79.74
2018-11-11T20:31:59.843Z,79.32
2018-11-11T20:34:31.718Z,79.25
2018-11-11T20:36:59.275Z,79.33
2018-11-11T20:39:26.736Z,79.46
2018-11-11T20:41:54.512Z,79.03
2018-11-11T20:44:21.967Z,79.01
2018-11-11T20:46:49.432Z,79.26
2018-11-11T20:49:18.575Z,78.74
2018-11-11T20:51:46.006Z,79.06
2018-11-11T20:54:14.523Z,78.85
2018-11-11T20:56:42.373Z,78.64
2018-11-11T20:59:10.948Z,78.68
2018-11-11T21:01:38.402Z,79.08
2018-11-11T21:04:06.429Z,78.84
2018-11-11T21:06:36.321Z,78.82
2018-11-11T21:09:04.329Z,78.81
2018-11-11T21:11:35.264Z,78.59
2018-11-11T21:14:03.452Z,78.85
2018-11-11T21:16:32.445Z,79.13
2018-11-11T21:19:02.393Z,79.13
2018-11-11T21:21:29.917Z,78.34
2018-11-11T21:23:57.413Z,78.84
2018-11-11T21:29:16.892Z,79.20
2018-11-11T21:31:46.633Z,79.05
2018-11-11T21:34:15.444Z,78.78
2018-11-11T21:36:43.229Z,78.77
2018-11-11T21:39:12.347Z,78.76
2018-11-11T21:41:39.922Z,78.93
2018-11-11T21:44:09.342Z,79.36
2018-11-11T21:46:36.936Z,78.72
2018-11-11T21:49:05.570Z,78.77
2018-11-11T21:51:34.559Z,78.96
2018-11-11T21:54:04.219Z,78.89
2018-11-11T21:56:32.460Z,79.34
2018-11-11T21:59:02.463Z,79.01
2018-11-11T22:01:33.258Z,79.19
2018-11-11T22:04:07.352Z,78.68
2018-11-11T22:06:36.196Z,79.12
2018-11-11T22:09:03.726Z,78.64
2018-11-11T22:11:31.236Z,78.90
2018-11-11T22:14:00.309Z,79.46
2018-11-11T22:16:29.219Z,78.72
2018-11-11T22:18:56.712Z,78.93
2018-11-11T22:21:25.482Z,79.19
2018-11-11T22:23:52.921Z,79.40
2018-11-11T22:26:20.333Z,78.81
2018-11-11T22:28:48.465Z,79.20
2018-11-11T22:31:15.944Z,78.79
2018-11-11T22:33:43.391Z,79.10
2018-11-11T22:36:10.810Z,78.51
2018-11-11T22:38:38.281Z,78.46
2018-11-11T22:41:05.753Z,78.96
2018-11-11T22:43:33.385Z,78.91
2018-11-11T22:46:00.844Z,78.16
2018-11-11T22:48:28.296Z,78.31
2018-11-11T22:50:55.719Z,78.29
2018-11-11T22:53:23.153Z,78.28
2018-11-11T22:55:50.579Z,78.60
2018-11-11T22:58:19.144Z,78.15
2018-11-11T23:01:21.219Z,78.31
2018-11-11T23:03:49.237Z,77.82
2018-11-11T23:06:16.891Z,78.49
2018-11-11T23:08:44.316Z,78.23
2018-11-11T23:11:11.766Z,77.62
2018-11-11T23:13:39.184Z,78.13
2018-11-11T23:16:07.402Z,77.99
2018-11-11T23:18:36.011Z,77.77
2018-11-11T23:21:03.728Z,77.82
2018-11-11T23:23:31.182Z,78.01
2018-11-11T23:25:58.599Z,77.77
2018-11-11T23:28:27.358Z,77.97
2018-11-11T23:30:54.820Z,77.93
2018-11-11T23:33:22.253Z,77.95
2018-11-11T23:35:49.721Z,77.52
2018-11-11T23:38:17.156Z,78.24
2018-11-11T23:40:44.578Z,77.63
2018-11-11T23:43:11.994Z,78.16
2018-11-11T23:45:39.764Z,77.60
2018-11-11T23:48:07.240Z,77.59
2018-11-11T23:50:35.264Z,77.64
2018-11-11T23:53:02.715Z,78.07
2018-11-11T23:55:31.101Z,77.57
2018-11-11T23:57:58.516Z,77.40
